10 KM ATEST PZLA GLIWICKI 2016
Organizator : Fundacja Bieg Rzeźnika
Data : 2016-10-23
Miejsce : Gliwice
Dystans : 10 km
Zgłoszonych : 388
Wystartowało : 337
Nie ukończyło : 3
Ukończyło : 334
Na trasie : 3
Pełne wyniki :
Uproszczone :
Klasyfikacje w punktach pomiarowych: Start | Meta
Klasyfikacje wg kategorii: Wszyscy | K Open | M Open | Niepełnosprawni | Mieszkanki Gliwic | Mieszkańcy Gliwic | K-16 | M-16 | K-20 | M-20 | K-30 | M-30 | K-40 | M-40 | K-50 | M-50 | K-60 | M-60 | K-70 | M-70
Klasyfikacja wg czasu netto. W klasyfikacji open, pierwsze 2000 miejsc wg czasu brutto. Wyniki nieoficjalne !!!
MscZawodnikNumerKlubMiejscowośćKrajKategoriaMkatK/MCzas startuCzas
netto
10km
Czas
brutto
10km
Różn.Tempo
min/km
Tempo
km/h
       
1STAWINOGA Janusz 2166ZABRZEM-401M 700:00:2000:38:41.4000:39:02.35 3:5215,5
2SOPEL Arkadiusz 2329OTK RzeźnikGLIWICEM-402M 1500:00:0200:41:47.8500:41:50.40+00:03:064:1014,4
3BOBEREK Grzegorz 2270POGORIA BIEGADĄBROWA GÓRNICZAM-403M 1700:00:0400:41:56.7500:42:01.00+00:03:154:1114,3
4BRODEK Andrzej 2006GLIWICEM-404M 2000:00:0400:43:28.0500:43:32.15+00:04:464:2013,8
5OLEJNIK Rafał 2145CHORZÓWM-405M 2100:00:0300:43:49.2500:43:52.75+00:05:074:2213,7
6BRYŁA Grzegorz 2116KNURÓWM-406M 2200:00:3000:43:52.7000:44:23.25+00:05:114:2313,7
7KRYSTEK Marcin 2330PARZYMIECHYM-407M 2800:01:2200:45:48.9000:47:11.40+00:07:074:3413,1
8ZAPOTOCZNY Przemek 2083GLIWICEM-408M 3200:01:3200:46:15.4000:47:48.30+00:07:344:3713,0
9HODOR Robert 2193BYTOMM-409M 4400:01:3300:48:32.9500:50:06.60+00:09:514:5112,4
10BOK Piotr 2098ŻĘDOWICEM-4010M 4000:00:1100:49:30.7000:49:41.75+00:10:494:5712,1
11JELEŃ Michał 2077GLIWICEM-4011M 6000:01:2000:50:37.7000:51:58.05+00:11:565:0311,8
12DOROS Adam 2288ZABRZEM-4012M 5900:00:5400:50:56.9000:51:51.30+00:12:155:0511,8
13ZEGARTOWSKI Grzegorz 2101GLIWICEM-4013M 6700:01:0300:51:24.1000:52:28.05+00:12:425:0811,7
14WOJAKOWSKI Krzysztof 2295ZABRZEM-4014M 6500:00:4700:51:25.5000:52:13.45+00:12:445:0811,7
15KLĘBOWSKI Sebastian 2251BYTOMM-4015M 7000:00:5800:51:52.9500:52:51.10+00:13:115:1111,6
16CYBA Marek 2123GLIWICEM-4016M 8600:01:1500:53:15.7500:54:31.00+00:14:345:1911,3
17DOBOSZ Daniel 2311GLIWICEM-4017M 8000:00:2500:53:35.1500:54:01.05+00:14:535:2111,2
18JEGLA Sebastian RUDA ŚLĄSKAM-4018M 8100:00:2300:53:40.2000:54:03.30+00:14:585:2211,2
19ZARUDZKI Łukasz 2022nothing to fearGLIWICEM-4019M 9400:01:1400:53:40.5500:54:54.60+00:14:595:2211,2
20USZYŃSKI Grzegorz 6GLIWICEM-4020M 8700:00:5400:53:43.5500:54:38.25+00:15:025:2211,2
21BIELECKI Adam 1Chateau ChalinBIELSKO-BIAŁAM-4021M 8200:00:2400:53:51.9000:54:16.60+00:15:105:2311,1
22JASIŃSKI Tomasz 27GLIWICEM-4022M 9500:01:0100:53:53.5000:54:55.45+00:15:125:2311,1
23DZIAŁKOWSKI Adam 2208ORNONTOWICEM-4023M 10400:01:0600:54:48.9000:55:55.20+00:16:075:2810,9
24BURDA Krzysztof 1286RYBNIKM-4024M 11400:01:3000:55:19.3500:56:50.30+00:16:375:3210,8
25WIAZANIA Marek 2168GLIWICEM-4025M 12200:01:1600:55:50.6000:57:07.35+00:17:095:3510,7
26SZCZECH Krzysztof 2117GLIWICEM-4026M 12300:01:0900:56:08.3000:57:18.00+00:17:265:3610,7
27OLEJNICZAK Wojciech 2114RADLINM-4027M 13500:01:5500:56:43.0500:58:38.70+00:18:015:4010,6
28GÓRA Marek 2242TARNOWSKIE GÓRYM-4028M 12100:00:1400:56:51.6000:57:06.00+00:18:105:4110,6
29SAMUL Mirosław 2293DragomiroGLIWICEM-4029M 13700:01:2200:57:25.3500:58:47.60+00:18:435:4410,4
30FOLTYN Armin 2343KĘSZIERZYN-KOŻLEM-4030M 14200:00:2600:59:07.7500:59:33.95+00:20:265:5410,1
31POKLUDA Radosław 2237tabelaofert.plTARNOWSKIE GÓRYM-4031M 15100:01:3000:59:12.8501:00:43.10+00:20:315:5510,1
32JAKUBIAK Arkadiusz 2164Opel Active TeamGLIWICEM-4032M 15000:01:0800:59:25.7501:00:33.75+00:20:445:5610,1
33STYS Marek 2185GLIWICEM-4033M 15500:01:4700:59:28.9001:01:16.05+00:20:475:5610,1
34MIZERA Robert 2291GLIWICEM-4034M 14900:00:4500:59:47.7501:00:33.10+00:21:065:5810,0
35WARZECHA Krzysztof 40M-4035M 15200:00:5300:59:55.4001:00:48.45+00:21:145:5910,0
36PIOTROWSKI Jarosław 2118Fuchs Oil TeamGLIWICEM-4036M 15700:00:5101:01:31.3001:02:23.20+00:22:496:099,8
37MIERZEJEWSKI Jacek 2004AMATORRUDYM-4037M 16300:01:2201:02:32.2001:03:54.55+00:23:506:159,6
38DEWOR Marek 2244Opel Active TeamOSSYM-4038M 16200:01:0701:02:36.3501:03:43.90+00:23:546:159,6
39STRZYŻ Ryszard 13CHORZOWSKA GRUPA BIEGOWACHORZÓWM-4039M 17700:01:2901:05:49.0501:07:18.55+00:27:076:349,1
40MAREK Robert 2075GLIWICEM-4040M 18400:01:3201:06:50.5001:08:22.95+00:28:096:419,0
41ŁADA Mirosław 2258GLIWICEM-4041M 19000:01:3701:11:30.4001:13:07.85+00:32:497:098,4
42BRATEK Łukasz 2348OTK RzeżnikGLIWICEM-4042M 19100:00:2501:12:51.3501:13:16.75+00:34:097:178,2
Znaleziono 42 wynik(ów)